Worden, MT (59088)

6:35 AM MDT on August 30, 2014 (GMT -0600)
Lockwood | Change Station
CLOSE
Current Station
Personal Weather Station
Location: Billings, MT
Elevation: 3202 ft
Nearby Weather Stations

Elev 3202 ft 45.82 °N, 108.39 °W | Updated 47 seconds ago

Partly Cloudy
Partly Cloudy
55.9 °F
Feels Like 55.9 °F
N
0.0
Wind Variable Wind from NE
Gusts 0.0 mph

Today
High -- | Low -- °F
--% Chance of Precip.
Yesterday
High -- | Low -- °F
Precip. -- in
6:31 AM 7:54 PM
Waxing Crescent, 21% visible
Pressure 29.72 in
Visibility 10.0 miles
Clouds Few 10000 ft
Scattered Clouds 16000 ft
Mostly Cloudy 23000 ft
Dew Point 50 °F
Humidity 79%
Rainfall 0.00 in
Snow Depth Not available.
UV 0 out of 12
Pollen 7.70 out of 12
Air Quality Not available.
Flu Activity Not available.
METAR KBIL 301153Z 22006KT 10SM FEW100 SCT160 BKN230 16/12 A2980 RMK AO2 SLP062 T01560117 10189 20150 56011

More Conditions Fewer Conditions

Pressure 29.72 in
Visibility 10.0 miles
Clouds Few 10000 ft
Scattered Clouds 16000 ft
Mostly Cloudy 23000 ft
Dew Point 50 °F
Humidity 79%
Rainfall 0.00 in
Snow Depth Not available.
UV 0 out of 12
Pollen 7.70 out of 12
Air Quality Not available.
Flu Activity Not available.
METAR KBIL 301153Z 22006KT 10SM FEW100 SCT160 BKN230 16/12 A2980 RMK AO2 SLP062 T01560117 10189 20150 56011

More Conditions Fewer Conditions

10-Day Weather Forecast

Almanac

Astronomy

Aug. 30, 2014 Rise Set
Actual Time 6:31 AM MDT 7:54 PM MDT
Civil Twilight 5:59 AM MDT 8:25 PM MDT
Nautical Twilight 5:22 AM MDT 9:02 PM MDT
Astronomical Twilight 4:42 AM MDT 9:42 PM MDT
Moon 11:39 AM MDT 10:12 PM MDT
Length of Visible Light 14h 25m
Length of Day
13h 23m
Tomorrow will be 3m 7s shorter.
Waxing Crescent, 21% of the Moon is Illuminated
Today
Waxing Crescent
Sep 2
First Quarter
Sep 8
Full
Sep 15
Last Quarter
Sep 24
New

Today's Extremes

State Highs State Lows

Community

WunderPhotos

Upload Photos

1,748,500 photos uploaded!

WunderBlogs® & News

By Dr. Jeff Masters
Director of Meteorology, Weather Underground
By Kari Strenfel
Meteorologist, Weather Underground
By Christopher C. Burt
Weather Historian, Weather Underground
August 30, 2014
August 30, 2014
August 30, 2014

Nearby

Snow Depth

Station Depth Elevation
Cole Creek 0 in 7850 ft
Crystal Lake 0 in 6050 ft
Placer Basin 0 in 8830 ft
White Mill 1 in 8700 ft
Porcupine 0 in 6500 ft

Earthquake Activity

City Distance Mag. Time & Date
No recent earthquake activity has been reported nearby.
Minimum magnitude displayed is 2.5.

Coastal Water Temperatures

Place Temperature
No Stations Reporting

Nearby Weather Stations